sensor_id;sensor_type;location;lat;lon;timestamp;P1;durP1;ratioP1;P2;durP2;ratioP2
1436;SDS011;712;51.026;13.792;2022-12-16T00:01:19;58.17;;;20.38;;
1436;SDS011;712;51.026;13.792;2022-12-16T00:03:47;51.53;;;19.08;;
1436;SDS011;712;51.026;13.792;2022-12-16T00:06:12;56.17;;;17.98;;
1436;SDS011;712;51.026;13.792;2022-12-16T00:08:38;46.03;;;17.73;;
1436;SDS011;712;51.026;13.792;2022-12-16T00:11:04;53.63;;;21.40;;
1436;SDS011;712;51.026;13.792;2022-12-16T00:13:30;53.45;;;18.50;;
1436;SDS011;712;51.026;13.792;2022-12-16T00:15:56;55.85;;;19.27;;
1436;SDS011;712;51.026;13.792;2022-12-16T00:18:21;48.00;;;17.90;;
1436;SDS011;712;51.026;13.792;2022-12-16T00:20:47;53.97;;;19.90;;
1436;SDS011;712;51.026;13.792;2022-12-16T00:23:12;52.28;;;18.20;;
1436;SDS011;712;51.026;13.792;2022-12-16T00:25:40;53.17;;;19.42;;
1436;SDS011;712;51.026;13.792;2022-12-16T00:28:05;55.03;;;20.30;;
1436;SDS011;712;51.026;13.792;2022-12-16T00:30:30;51.77;;;20.00;;
1436;SDS011;712;51.026;13.792;2022-12-16T00:32:55;47.60;;;18.50;;
1436;SDS011;712;51.026;13.792;2022-12-16T00:35:20;49.53;;;19.85;;
1436;SDS011;712;51.026;13.792;2022-12-16T00:37:46;51.10;;;18.83;;
1436;SDS011;712;51.026;13.792;2022-12-16T00:40:11;56.88;;;19.83;;
1436;SDS011;712;51.026;13.792;2022-12-16T00:42:36;53.00;;;20.70;;
1436;SDS011;712;51.026;13.792;2022-12-16T00:45:01;45.97;;;17.77;;
1436;SDS011;712;51.026;13.792;2022-12-16T00:47:26;51.57;;;18.53;;
1436;SDS011;712;51.026;13.792;2022-12-16T00:49:51;52.08;;;19.25;;
1436;SDS011;712;51.026;13.792;2022-12-16T00:52:17;57.77;;;20.87;;
1436;SDS011;712;51.026;13.792;2022-12-16T00:54:42;54.28;;;20.27;;
1436;SDS011;712;51.026;13.792;2022-12-16T00:57:07;51.35;;;19.25;;
1436;SDS011;712;51.026;13.792;2022-12-16T00:59:33;57.85;;;21.45;;
1436;SDS011;712;51.026;13.792;2022-12-16T01:01:58;55.03;;;20.17;;
1436;SDS011;712;51.026;13.792;2022-12-16T01:04:23;62.17;;;22.10;;
1436;SDS011;712;51.026;13.792;2022-12-16T01:09:15;54.42;;;17.92;;
1436;SDS011;712;51.026;13.792;2022-12-16T01:11:40;51.97;;;19.67;;
1436;SDS011;712;51.026;13.792;2022-12-16T01:14:06;55.17;;;20.23;;
1436;SDS011;712;51.026;13.792;2022-12-16T01:16:31;56.43;;;21.23;;
1436;SDS011;712;51.026;13.792;2022-12-16T01:18:56;50.67;;;19.37;;
1436;SDS011;712;51.026;13.792;2022-12-16T01:21:21;50.93;;;19.27;;
1436;SDS011;712;51.026;13.792;2022-12-16T01:23:46;53.87;;;20.80;;
1436;SDS011;712;51.026;13.792;2022-12-16T01:26:14;53.53;;;19.83;;
1436;SDS011;712;51.026;13.792;2022-12-16T01:28:39;54.33;;;21.25;;
1436;SDS011;712;51.026;13.792;2022-12-16T01:31:04;59.27;;;21.87;;
1436;SDS011;712;51.026;13.792;2022-12-16T01:33:30;52.93;;;20.13;;
1436;SDS011;712;51.026;13.792;2022-12-16T01:35:59;56.63;;;20.98;;
1436;SDS011;712;51.026;13.792;2022-12-16T01:38:25;51.08;;;18.67;;
1436;SDS011;712;51.026;13.792;2022-12-16T01:40:50;51.07;;;20.00;;
1436;SDS011;712;51.026;13.792;2022-12-16T01:43:15;53.58;;;19.73;;
1436;SDS011;712;51.026;13.792;2022-12-16T01:45:41;59.53;;;20.98;;
1436;SDS011;712;51.026;13.792;2022-12-16T01:48:31;56.45;;;19.42;;
1436;SDS011;712;51.026;13.792;2022-12-16T01:50:52;56.92;;;19.33;;
1436;SDS011;712;51.026;13.792;2022-12-16T01:55:45;58.65;;;20.35;;
1436;SDS011;712;51.026;13.792;2022-12-16T01:58:20;53.60;;;19.80;;
1436;SDS011;712;51.026;13.792;2022-12-16T02:00:47;53.03;;;19.27;;
1436;SDS011;712;51.026;13.792;2022-12-16T02:03:12;60.25;;;21.77;;
1436;SDS011;712;51.026;13.792;2022-12-16T02:05:38;54.90;;;19.45;;
1436;SDS011;712;51.026;13.792;2022-12-16T02:08:06;57.25;;;19.23;;
1436;SDS011;712;51.026;13.792;2022-12-16T02:18:04;59.00;;;20.83;;
1436;SDS011;712;51.026;13.792;2022-12-16T02:23:42;54.35;;;20.38;;
1436;SDS011;712;51.026;13.792;2022-12-16T02:32:15;56.42;;;21.08;;
1436;SDS011;712;51.026;13.792;2022-12-16T02:36:41;55.63;;;19.98;;
1436;SDS011;712;51.026;13.792;2022-12-16T02:39:12;52.70;;;19.42;;
1436;SDS011;712;51.026;13.792;2022-12-16T02:41:42;58.55;;;21.17;;
1436;SDS011;712;51.026;13.792;2022-12-16T02:44:08;55.08;;;21.65;;
1436;SDS011;712;51.026;13.792;2022-12-16T02:46:43;52.60;;;19.58;;
1436;SDS011;712;51.026;13.792;2022-12-16T02:51:40;53.58;;;20.23;;
1436;SDS011;712;51.026;13.792;2022-12-16T02:54:06;51.37;;;19.40;;
1436;SDS011;712;51.026;13.792;2022-12-16T03:01:51;53.33;;;19.20;;
1436;SDS011;712;51.026;13.792;2022-12-16T03:04:19;53.67;;;19.98;;
1436;SDS011;712;51.026;13.792;2022-12-16T03:06:46;57.83;;;21.40;;
1436;SDS011;712;51.026;13.792;2022-12-16T03:09:13;53.85;;;21.08;;
1436;SDS011;712;51.026;13.792;2022-12-16T03:11:39;58.60;;;21.20;;
1436;SDS011;712;51.026;13.792;2022-12-16T03:14:06;48.92;;;19.25;;
1436;SDS011;712;51.026;13.792;2022-12-16T03:16:34;56.53;;;20.42;;
1436;SDS011;712;51.026;13.792;2022-12-16T03:19:01;58.85;;;21.90;;
1436;SDS011;712;51.026;13.792;2022-12-16T03:21:28;55.60;;;21.52;;
1436;SDS011;712;51.026;13.792;2022-12-16T03:23:59;54.65;;;19.17;;
1436;SDS011;712;51.026;13.792;2022-12-16T03:26:26;55.85;;;21.38;;
1436;SDS011;712;51.026;13.792;2022-12-16T03:29:01;56.83;;;21.17;;
1436;SDS011;712;51.026;13.792;2022-12-16T03:31:35;50.65;;;19.63;;
1436;SDS011;712;51.026;13.792;2022-12-16T03:36:27;54.83;;;20.60;;
1436;SDS011;712;51.026;13.792;2022-12-16T03:41:20;51.67;;;20.50;;
1436;SDS011;712;51.026;13.792;2022-12-16T03:43:47;49.20;;;18.90;;
1436;SDS011;712;51.026;13.792;2022-12-16T03:46:13;51.78;;;20.10;;
1436;SDS011;712;51.026;13.792;2022-12-16T03:48:44;53.53;;;20.00;;
1436;SDS011;712;51.026;13.792;2022-12-16T03:51:09;47.15;;;18.88;;
1436;SDS011;712;51.026;13.792;2022-12-16T03:53:34;50.95;;;18.88;;
1436;SDS011;712;51.026;13.792;2022-12-16T03:55:59;51.57;;;19.53;;
1436;SDS011;712;51.026;13.792;2022-12-16T03:58:24;48.67;;;20.10;;
1436;SDS011;712;51.026;13.792;2022-12-16T04:00:49;55.33;;;18.95;;
1436;SDS011;712;51.026;13.792;2022-12-16T04:03:15;47.67;;;18.90;;
1436;SDS011;712;51.026;13.792;2022-12-16T04:05:40;49.10;;;19.13;;
1436;SDS011;712;51.026;13.792;2022-12-16T04:08:05;48.27;;;18.37;;
1436;SDS011;712;51.026;13.792;2022-12-16T04:10:30;49.23;;;19.20;;
1436;SDS011;712;51.026;13.792;2022-12-16T04:13:14;46.33;;;19.05;;
1436;SDS011;712;51.026;13.792;2022-12-16T04:15:58;49.83;;;18.02;;
1436;SDS011;712;51.026;13.792;2022-12-16T04:18:42;46.03;;;18.33;;
1436;SDS011;712;51.026;13.792;2022-12-16T04:21:26;46.42;;;17.40;;
1436;SDS011;712;51.026;13.792;2022-12-16T04:24:11;45.20;;;17.30;;
1436;SDS011;712;51.026;13.792;2022-12-16T04:26:44;44.65;;;17.00;;
1436;SDS011;712;51.026;13.792;2022-12-16T04:29:28;43.60;;;16.92;;
1436;SDS011;712;51.026;13.792;2022-12-16T04:31:53;46.83;;;17.77;;
1436;SDS011;712;51.026;13.792;2022-12-16T04:34:19;44.78;;;17.73;;
1436;SDS011;712;51.026;13.792;2022-12-16T04:36:54;41.35;;;15.82;;
1436;SDS011;712;51.026;13.792;2022-12-16T04:39:38;50.10;;;18.08;;
1436;SDS011;712;51.026;13.792;2022-12-16T04:42:22;41.88;;;16.73;;
1436;SDS011;712;51.026;13.792;2022-12-16T04:45:06;42.55;;;17.10;;
1436;SDS011;712;51.026;13.792;2022-12-16T04:47:51;40.53;;;15.30;;
1436;SDS011;712;51.026;13.792;2022-12-16T04:50:35;43.30;;;15.88;;
1436;SDS011;712;51.026;13.792;2022-12-16T04:53:19;39.97;;;15.30;;
1436;SDS011;712;51.026;13.792;2022-12-16T04:56:03;40.60;;;15.85;;
1436;SDS011;712;51.026;13.792;2022-12-16T04:58:47;41.95;;;16.70;;
1436;SDS011;712;51.026;13.792;2022-12-16T05:01:31;42.85;;;15.85;;
1436;SDS011;712;51.026;13.792;2022-12-16T05:04:14;40.78;;;15.45;;
1436;SDS011;712;51.026;13.792;2022-12-16T05:06:59;40.95;;;15.52;;
1436;SDS011;712;51.026;13.792;2022-12-16T05:09:42;42.33;;;16.92;;
1436;SDS011;712;51.026;13.792;2022-12-16T05:12:26;39.42;;;14.05;;
1436;SDS011;712;51.026;13.792;2022-12-16T05:15:10;41.97;;;15.73;;
1436;SDS011;712;51.026;13.792;2022-12-16T05:17:54;38.70;;;14.90;;
1436;SDS011;712;51.026;13.792;2022-12-16T05:20:38;37.22;;;13.77;;
1436;SDS011;712;51.026;13.792;2022-12-16T05:23:22;39.65;;;14.75;;
1436;SDS011;712;51.026;13.792;2022-12-16T05:26:06;41.70;;;14.63;;
1436;SDS011;712;51.026;13.792;2022-12-16T05:28:50;40.70;;;14.52;;
1436;SDS011;712;51.026;13.792;2022-12-16T05:31:34;38.08;;;14.70;;
1436;SDS011;712;51.026;13.792;2022-12-16T05:34:18;40.10;;;15.07;;
1436;SDS011;712;51.026;13.792;2022-12-16T05:37:06;38.00;;;15.05;;
1436;SDS011;712;51.026;13.792;2022-12-16T05:39:50;39.25;;;14.43;;
1436;SDS011;712;51.026;13.792;2022-12-16T05:42:34;43.33;;;15.95;;
1436;SDS011;712;51.026;13.792;2022-12-16T05:45:35;42.65;;;15.10;;
1436;SDS011;712;51.026;13.792;2022-12-16T05:48:33;37.90;;;14.30;;
1436;SDS011;712;51.026;13.792;2022-12-16T05:51:16;36.08;;;13.90;;
1436;SDS011;712;51.026;13.792;2022-12-16T05:54:00;36.65;;;15.18;;
1436;SDS011;712;51.026;13.792;2022-12-16T05:56:44;37.15;;;13.85;;
1436;SDS011;712;51.026;13.792;2022-12-16T05:59:28;36.88;;;14.40;;
1436;SDS011;712;51.026;13.792;2022-12-16T06:02:12;37.35;;;15.10;;
1436;SDS011;712;51.026;13.792;2022-12-16T06:04:56;44.88;;;15.93;;
1436;SDS011;712;51.026;13.792;2022-12-16T06:07:40;38.97;;;15.15;;
1436;SDS011;712;51.026;13.792;2022-12-16T06:10:24;36.08;;;14.38;;
1436;SDS011;712;51.026;13.792;2022-12-16T06:13:08;34.88;;;14.20;;
1436;SDS011;712;51.026;13.792;2022-12-16T06:15:52;41.08;;;15.05;;
1436;SDS011;712;51.026;13.792;2022-12-16T06:18:36;34.22;;;13.75;;
1436;SDS011;712;51.026;13.792;2022-12-16T06:21:20;42.50;;;14.52;;
1436;SDS011;712;51.026;13.792;2022-12-16T06:24:04;36.85;;;14.05;;
1436;SDS011;712;51.026;13.792;2022-12-16T06:26:48;39.95;;;15.60;;
1436;SDS011;712;51.026;13.792;2022-12-16T06:29:32;48.05;;;18.83;;
1436;SDS011;712;51.026;13.792;2022-12-16T06:32:16;48.70;;;17.02;;
1436;SDS011;712;51.026;13.792;2022-12-16T06:35:00;47.30;;;18.85;;
1436;SDS011;712;51.026;13.792;2022-12-16T06:37:47;48.28;;;18.02;;
1436;SDS011;712;51.026;13.792;2022-12-16T06:40:31;48.55;;;18.52;;
1436;SDS011;712;51.026;13.792;2022-12-16T06:43:15;48.33;;;17.30;;
1436;SDS011;712;51.026;13.792;2022-12-16T06:45:59;47.33;;;17.48;;
1436;SDS011;712;51.026;13.792;2022-12-16T06:48:42;47.55;;;17.65;;
1436;SDS011;712;51.026;13.792;2022-12-16T06:51:26;49.75;;;18.63;;
1436;SDS011;712;51.026;13.792;2022-12-16T06:54:10;46.70;;;18.42;;
1436;SDS011;712;51.026;13.792;2022-12-16T06:56:54;46.42;;;15.50;;
1436;SDS011;712;51.026;13.792;2022-12-16T06:59:38;44.08;;;17.25;;
1436;SDS011;712;51.026;13.792;2022-12-16T07:02:22;35.50;;;14.95;;
1436;SDS011;712;51.026;13.792;2022-12-16T07:05:06;35.72;;;14.20;;
1436;SDS011;712;51.026;13.792;2022-12-16T07:07:50;37.55;;;13.80;;
1436;SDS011;712;51.026;13.792;2022-12-16T07:10:35;38.60;;;15.40;;
1436;SDS011;712;51.026;13.792;2022-12-16T07:13:19;36.80;;;13.38;;
1436;SDS011;712;51.026;13.792;2022-12-16T07:16:03;39.05;;;15.18;;
1436;SDS011;712;51.026;13.792;2022-12-16T07:18:47;43.78;;;14.95;;
1436;SDS011;712;51.026;13.792;2022-12-16T07:21:30;35.78;;;14.30;;
1436;SDS011;712;51.026;13.792;2022-12-16T07:24:15;42.35;;;16.08;;
1436;SDS011;712;51.026;13.792;2022-12-16T07:26:58;39.42;;;15.30;;
1436;SDS011;712;51.026;13.792;2022-12-16T07:29:42;83.78;;;28.33;;
1436;SDS011;712;51.026;13.792;2022-12-16T07:32:26;130.60;;;42.38;;
1436;SDS011;712;51.026;13.792;2022-12-16T07:35:10;52.85;;;20.27;;
1436;SDS011;712;51.026;13.792;2022-12-16T07:37:54;42.25;;;17.33;;
1436;SDS011;712;51.026;13.792;2022-12-16T07:40:38;49.03;;;17.55;;
1436;SDS011;712;51.026;13.792;2022-12-16T07:43:22;38.70;;;14.70;;
1436;SDS011;712;51.026;13.792;2022-12-16T07:46:06;45.38;;;16.75;;
1436;SDS011;712;51.026;13.792;2022-12-16T07:48:50;41.40;;;15.73;;
1436;SDS011;712;51.026;13.792;2022-12-16T07:51:34;42.78;;;16.45;;
1436;SDS011;712;51.026;13.792;2022-12-16T07:54:17;43.72;;;16.52;;
1436;SDS011;712;51.026;13.792;2022-12-16T07:57:01;44.40;;;17.65;;
1436;SDS011;712;51.026;13.792;2022-12-16T07:59:45;42.22;;;17.27;;
1436;SDS011;712;51.026;13.792;2022-12-16T08:02:29;48.88;;;18.10;;
1436;SDS011;712;51.026;13.792;2022-12-16T08:05:13;46.65;;;18.48;;
1436;SDS011;712;51.026;13.792;2022-12-16T08:07:57;45.83;;;18.25;;
1436;SDS011;712;51.026;13.792;2022-12-16T08:10:41;42.45;;;16.52;;
1436;SDS011;712;51.026;13.792;2022-12-16T08:13:25;46.47;;;17.38;;
1436;SDS011;712;51.026;13.792;2022-12-16T08:16:09;44.58;;;17.35;;
1436;SDS011;712;51.026;13.792;2022-12-16T08:18:53;49.70;;;19.67;;
1436;SDS011;712;51.026;13.792;2022-12-16T08:21:37;46.92;;;18.95;;
1436;SDS011;712;51.026;13.792;2022-12-16T08:24:21;43.35;;;17.98;;
1436;SDS011;712;51.026;13.792;2022-12-16T08:27:05;48.97;;;19.40;;
1436;SDS011;712;51.026;13.792;2022-12-16T08:29:49;46.22;;;18.48;;
1436;SDS011;712;51.026;13.792;2022-12-16T08:32:33;48.78;;;18.77;;
1436;SDS011;712;51.026;13.792;2022-12-16T08:35:17;47.75;;;19.75;;
1436;SDS011;712;51.026;13.792;2022-12-16T08:38:01;49.17;;;20.67;;
1436;SDS011;712;51.026;13.792;2022-12-16T08:40:45;51.28;;;20.10;;
1436;SDS011;712;51.026;13.792;2022-12-16T08:43:29;43.70;;;17.52;;
1436;SDS011;712;51.026;13.792;2022-12-16T08:46:13;46.33;;;18.70;;
1436;SDS011;712;51.026;13.792;2022-12-16T08:48:57;50.75;;;19.85;;
1436;SDS011;712;51.026;13.792;2022-12-16T08:51:41;53.17;;;21.23;;
1436;SDS011;712;51.026;13.792;2022-12-16T08:54:25;54.22;;;21.00;;
1436;SDS011;712;51.026;13.792;2022-12-16T08:57:09;49.47;;;20.05;;
1436;SDS011;712;51.026;13.792;2022-12-16T08:59:53;52.05;;;20.33;;
1436;SDS011;712;51.026;13.792;2022-12-16T09:02:37;59.30;;;21.25;;
1436;SDS011;712;51.026;13.792;2022-12-16T09:05:21;63.10;;;23.73;;
1436;SDS011;712;51.026;13.792;2022-12-16T09:10:49;67.00;;;24.17;;
1436;SDS011;712;51.026;13.792;2022-12-16T09:13:33;64.10;;;23.58;;
1436;SDS011;712;51.026;13.792;2022-12-16T09:16:17;62.50;;;23.77;;
1436;SDS011;712;51.026;13.792;2022-12-16T09:19:01;65.43;;;23.98;;
1436;SDS011;712;51.026;13.792;2022-12-16T09:21:45;62.53;;;23.63;;
1436;SDS011;712;51.026;13.792;2022-12-16T09:24:29;63.92;;;24.33;;
1436;SDS011;712;51.026;13.792;2022-12-16T09:27:13;61.85;;;23.05;;
1436;SDS011;712;51.026;13.792;2022-12-16T09:29:57;59.30;;;23.65;;
1436;SDS011;712;51.026;13.792;2022-12-16T09:32:42;63.08;;;23.30;;
1436;SDS011;712;51.026;13.792;2022-12-16T09:35:25;66.00;;;26.63;;
1436;SDS011;712;51.026;13.792;2022-12-16T09:38:09;60.78;;;23.02;;
1436;SDS011;712;51.026;13.792;2022-12-16T09:40:53;61.40;;;23.13;;
1436;SDS011;712;51.026;13.792;2022-12-16T09:43:43;59.10;;;22.70;;
1436;SDS011;712;51.026;13.792;2022-12-16T09:46:51;59.95;;;23.05;;
1436;SDS011;712;51.026;13.792;2022-12-16T09:52:25;55.55;;;21.90;;
1436;SDS011;712;51.026;13.792;2022-12-16T09:55:19;55.70;;;20.63;;
1436;SDS011;712;51.026;13.792;2022-12-16T09:58:05;50.17;;;20.27;;
1436;SDS011;712;51.026;13.792;2022-12-16T10:00:49;57.45;;;21.33;;
1436;SDS011;712;51.026;13.792;2022-12-16T10:03:35;62.83;;;26.23;;
1436;SDS011;712;51.026;13.792;2022-12-16T10:06:41;53.65;;;21.73;;
1436;SDS011;712;51.026;13.792;2022-12-16T10:15:25;50.00;;;20.02;;
1436;SDS011;712;51.026;13.792;2022-12-16T10:18:14;48.30;;;19.50;;
1436;SDS011;712;51.026;13.792;2022-12-16T10:20:59;46.70;;;18.10;;
1436;SDS011;712;51.026;13.792;2022-12-16T10:29:23;47.75;;;19.08;;
1436;SDS011;712;51.026;13.792;2022-12-16T10:32:26;48.35;;;19.50;;
1436;SDS011;712;51.026;13.792;2022-12-16T10:35:17;56.10;;;19.98;;
1436;SDS011;712;51.026;13.792;2022-12-16T10:38:01;48.88;;;18.50;;
1436;SDS011;712;51.026;13.792;2022-12-16T10:40:45;47.90;;;21.00;;
1436;SDS011;712;51.026;13.792;2022-12-16T10:43:33;48.30;;;19.02;;
1436;SDS011;712;51.026;13.792;2022-12-16T10:46:19;50.08;;;20.20;;
1436;SDS011;712;51.026;13.792;2022-12-16T10:49:03;53.20;;;19.63;;
1436;SDS011;712;51.026;13.792;2022-12-16T10:51:47;48.72;;;18.38;;
1436;SDS011;712;51.026;13.792;2022-12-16T10:54:38;60.05;;;23.00;;
1436;SDS011;712;51.026;13.792;2022-12-16T10:57:26;55.65;;;20.17;;
1436;SDS011;712;51.026;13.792;2022-12-16T11:02:55;52.17;;;20.42;;
1436;SDS011;712;51.026;13.792;2022-12-16T11:05:39;51.58;;;19.73;;
1436;SDS011;712;51.026;13.792;2022-12-16T11:08:24;48.38;;;19.00;;
1436;SDS011;712;51.026;13.792;2022-12-16T11:11:12;54.35;;;21.77;;
1436;SDS011;712;51.026;13.792;2022-12-16T11:14:07;53.25;;;21.55;;
1436;SDS011;712;51.026;13.792;2022-12-16T11:20:19;51.88;;;20.48;;
1436;SDS011;712;51.026;13.792;2022-12-16T11:26:04;50.22;;;19.30;;
1436;SDS011;712;51.026;13.792;2022-12-16T11:34:54;54.20;;;20.63;;
1436;SDS011;712;51.026;13.792;2022-12-16T11:37:40;54.13;;;21.02;;
1436;SDS011;712;51.026;13.792;2022-12-16T11:40:25;53.90;;;20.30;;
1436;SDS011;712;51.026;13.792;2022-12-16T11:43:09;54.45;;;21.48;;
1436;SDS011;712;51.026;13.792;2022-12-16T11:45:54;54.60;;;20.75;;
1436;SDS011;712;51.026;13.792;2022-12-16T11:48:41;50.47;;;18.88;;
1436;SDS011;712;51.026;13.792;2022-12-16T11:51:25;50.70;;;21.10;;
1436;SDS011;712;51.026;13.792;2022-12-16T11:54:17;52.75;;;20.00;;
1436;SDS011;712;51.026;13.792;2022-12-16T11:57:03;58.10;;;22.00;;
1436;SDS011;712;51.026;13.792;2022-12-16T11:59:52;53.15;;;20.58;;
1436;SDS011;712;51.026;13.792;2022-12-16T12:02:41;57.50;;;21.70;;
1436;SDS011;712;51.026;13.792;2022-12-16T12:05:27;51.55;;;19.42;;
1436;SDS011;712;51.026;13.792;2022-12-16T12:08:21;53.33;;;20.42;;
1436;SDS011;712;51.026;13.792;2022-12-16T12:14:09;47.63;;;20.70;;
1436;SDS011;712;51.026;13.792;2022-12-16T12:22:45;54.15;;;20.20;;
1436;SDS011;712;51.026;13.792;2022-12-16T12:37:23;53.92;;;20.42;;
1436;SDS011;712;51.026;13.792;2022-12-16T12:40:24;50.85;;;20.95;;
1436;SDS011;712;51.026;13.792;2022-12-16T12:43:43;48.45;;;20.17;;
1436;SDS011;712;51.026;13.792;2022-12-16T12:46:27;50.33;;;20.20;;
1436;SDS011;712;51.026;13.792;2022-12-16T12:55:08;50.05;;;19.42;;
1436;SDS011;712;51.026;13.792;2022-12-16T12:57:52;49.55;;;19.13;;
1436;SDS011;712;51.026;13.792;2022-12-16T13:00:42;46.13;;;18.30;;
1436;SDS011;712;51.026;13.792;2022-12-16T13:03:32;50.63;;;19.60;;
1436;SDS011;712;51.026;13.792;2022-12-16T13:06:19;47.65;;;18.50;;
1436;SDS011;712;51.026;13.792;2022-12-16T13:20:41;53.60;;;20.55;;
1436;SDS011;712;51.026;13.792;2022-12-16T13:26:16;52.13;;;20.95;;
1436;SDS011;712;51.026;13.792;2022-12-16T13:37:50;51.22;;;20.67;;
1436;SDS011;712;51.026;13.792;2022-12-16T13:40:46;55.25;;;20.58;;
1436;SDS011;712;51.026;13.792;2022-12-16T13:44:03;55.53;;;21.20;;
1436;SDS011;712;51.026;13.792;2022-12-16T13:46:47;50.40;;;18.42;;
1436;SDS011;712;51.026;13.792;2022-12-16T13:52:20;58.42;;;21.70;;
1436;SDS011;712;51.026;13.792;2022-12-16T13:55:18;51.20;;;20.30;;
1436;SDS011;712;51.026;13.792;2022-12-16T13:58:05;53.20;;;20.00;;
1436;SDS011;712;51.026;13.792;2022-12-16T14:01:23;53.58;;;22.20;;
1436;SDS011;712;51.026;13.792;2022-12-16T14:03:59;55.33;;;21.02;;
1436;SDS011;712;51.026;13.792;2022-12-16T14:06:44;52.85;;;19.80;;
1436;SDS011;712;51.026;13.792;2022-12-16T14:09:35;49.42;;;20.80;;
1436;SDS011;712;51.026;13.792;2022-12-16T14:12:22;58.53;;;21.77;;
1436;SDS011;712;51.026;13.792;2022-12-16T14:15:14;55.15;;;21.40;;
1436;SDS011;712;51.026;13.792;2022-12-16T14:18:02;53.22;;;20.55;;
1436;SDS011;712;51.026;13.792;2022-12-16T14:20:51;53.38;;;22.05;;
1436;SDS011;712;51.026;13.792;2022-12-16T14:23:56;49.22;;;20.52;;
1436;SDS011;712;51.026;13.792;2022-12-16T14:26:42;59.67;;;22.48;;
1436;SDS011;712;51.026;13.792;2022-12-16T14:29:27;52.88;;;19.65;;
1436;SDS011;712;51.026;13.792;2022-12-16T14:35:01;55.40;;;20.23;;
1436;SDS011;712;51.026;13.792;2022-12-16T14:37:45;55.85;;;23.25;;
1436;SDS011;712;51.026;13.792;2022-12-16T14:40:30;53.95;;;20.92;;
1436;SDS011;712;51.026;13.792;2022-12-16T14:43:15;56.55;;;21.83;;
1436;SDS011;712;51.026;13.792;2022-12-16T14:46:00;53.10;;;21.80;;
1436;SDS011;712;51.026;13.792;2022-12-16T14:48:45;55.20;;;20.13;;
1436;SDS011;712;51.026;13.792;2022-12-16T14:51:30;53.60;;;21.77;;
1436;SDS011;712;51.026;13.792;2022-12-16T14:54:18;51.28;;;20.02;;
1436;SDS011;712;51.026;13.792;2022-12-16T14:57:03;56.85;;;21.20;;
1436;SDS011;712;51.026;13.792;2022-12-16T14:59:47;58.10;;;22.40;;
1436;SDS011;712;51.026;13.792;2022-12-16T15:02:42;54.38;;;23.80;;
1436;SDS011;712;51.026;13.792;2022-12-16T15:05:32;61.88;;;22.35;;
1436;SDS011;712;51.026;13.792;2022-12-16T15:08:16;57.65;;;21.63;;
1436;SDS011;712;51.026;13.792;2022-12-16T15:11:01;56.20;;;22.20;;
1436;SDS011;712;51.026;13.792;2022-12-16T15:13:46;61.70;;;24.20;;
1436;SDS011;712;51.026;13.792;2022-12-16T15:16:32;55.28;;;22.45;;
1436;SDS011;712;51.026;13.792;2022-12-16T15:19:19;55.70;;;22.25;;
1436;SDS011;712;51.026;13.792;2022-12-16T15:22:04;57.72;;;21.88;;
1436;SDS011;712;51.026;13.792;2022-12-16T15:24:48;53.90;;;21.25;;
1436;SDS011;712;51.026;13.792;2022-12-16T15:27:36;57.33;;;22.80;;
1436;SDS011;712;51.026;13.792;2022-12-16T15:30:36;59.15;;;21.42;;
1436;SDS011;712;51.026;13.792;2022-12-16T15:33:30;55.03;;;21.77;;
1436;SDS011;712;51.026;13.792;2022-12-16T15:42:18;62.35;;;23.30;;
1436;SDS011;712;51.026;13.792;2022-12-16T15:45:02;59.20;;;21.92;;
1436;SDS011;712;51.026;13.792;2022-12-16T15:47:48;57.28;;;22.25;;
1436;SDS011;712;51.026;13.792;2022-12-16T15:50:32;58.75;;;22.02;;
1436;SDS011;712;51.026;13.792;2022-12-16T15:53:30;55.90;;;21.08;;
1436;SDS011;712;51.026;13.792;2022-12-16T15:56:18;53.45;;;20.60;;
1436;SDS011;712;51.026;13.792;2022-12-16T15:59:12;57.15;;;21.52;;
1436;SDS011;712;51.026;13.792;2022-12-16T16:01:56;57.15;;;21.85;;
1436;SDS011;712;51.026;13.792;2022-12-16T16:04:40;57.00;;;19.92;;
1436;SDS011;712;51.026;13.792;2022-12-16T16:07:24;54.70;;;21.52;;
1436;SDS011;712;51.026;13.792;2022-12-16T16:10:18;56.70;;;21.67;;
1436;SDS011;712;51.026;13.792;2022-12-16T16:13:03;54.70;;;21.55;;
1436;SDS011;712;51.026;13.792;2022-12-16T16:15:47;56.05;;;21.80;;
1436;SDS011;712;51.026;13.792;2022-12-16T16:18:31;61.45;;;22.77;;
1436;SDS011;712;51.026;13.792;2022-12-16T16:21:15;57.17;;;20.80;;
1436;SDS011;712;51.026;13.792;2022-12-16T16:23:58;57.33;;;20.63;;
1436;SDS011;712;51.026;13.792;2022-12-16T16:26:42;58.10;;;22.20;;
1436;SDS011;712;51.026;13.792;2022-12-16T16:29:26;58.88;;;22.75;;
1436;SDS011;712;51.026;13.792;2022-12-16T16:32:10;61.20;;;22.45;;
1436;SDS011;712;51.026;13.792;2022-12-16T16:34:54;61.10;;;21.50;;
1436;SDS011;712;51.026;13.792;2022-12-16T16:37:38;56.75;;;22.08;;
1436;SDS011;712;51.026;13.792;2022-12-16T16:40:26;54.38;;;20.80;;
1436;SDS011;712;51.026;13.792;2022-12-16T16:43:11;53.33;;;20.98;;
1436;SDS011;712;51.026;13.792;2022-12-16T16:45:55;54.85;;;21.48;;
1436;SDS011;712;51.026;13.792;2022-12-16T16:48:39;52.28;;;20.77;;
1436;SDS011;712;51.026;13.792;2022-12-16T16:51:23;54.70;;;22.50;;
1436;SDS011;712;51.026;13.792;2022-12-16T16:54:07;58.78;;;21.08;;
1436;SDS011;712;51.026;13.792;2022-12-16T16:56:51;57.47;;;21.30;;
1436;SDS011;712;51.026;13.792;2022-12-16T16:59:35;60.10;;;24.20;;
1436;SDS011;712;51.026;13.792;2022-12-16T17:02:20;56.92;;;21.70;;
1436;SDS011;712;51.026;13.792;2022-12-16T17:05:05;55.92;;;21.27;;
1436;SDS011;712;51.026;13.792;2022-12-16T17:07:49;61.00;;;21.88;;
1436;SDS011;712;51.026;13.792;2022-12-16T17:10:33;53.30;;;19.73;;
1436;SDS011;712;51.026;13.792;2022-12-16T17:13:17;56.83;;;22.85;;
1436;SDS011;712;51.026;13.792;2022-12-16T17:16:01;55.83;;;21.95;;
1436;SDS011;712;51.026;13.792;2022-12-16T17:18:45;57.80;;;22.05;;
1436;SDS011;712;51.026;13.792;2022-12-16T17:21:29;56.58;;;20.45;;
1436;SDS011;712;51.026;13.792;2022-12-16T17:24:13;56.67;;;21.67;;
1436;SDS011;712;51.026;13.792;2022-12-16T17:26:56;54.60;;;20.52;;
1436;SDS011;712;51.026;13.792;2022-12-16T17:29:40;55.80;;;21.65;;
1436;SDS011;712;51.026;13.792;2022-12-16T17:32:24;52.95;;;20.83;;
1436;SDS011;712;51.026;13.792;2022-12-16T17:35:11;57.00;;;20.85;;
1436;SDS011;712;51.026;13.792;2022-12-16T17:37:55;52.53;;;20.35;;
1436;SDS011;712;51.026;13.792;2022-12-16T17:40:39;62.50;;;22.90;;
1436;SDS011;712;51.026;13.792;2022-12-16T17:43:23;58.58;;;23.02;;
1436;SDS011;712;51.026;13.792;2022-12-16T17:46:08;51.92;;;19.95;;
1436;SDS011;712;51.026;13.792;2022-12-16T17:48:53;53.10;;;22.05;;
1436;SDS011;712;51.026;13.792;2022-12-16T17:51:36;55.58;;;22.30;;
1436;SDS011;712;51.026;13.792;2022-12-16T17:54:20;57.65;;;23.20;;
1436;SDS011;712;51.026;13.792;2022-12-16T17:57:05;51.55;;;21.20;;
1436;SDS011;712;51.026;13.792;2022-12-16T17:59:49;54.22;;;21.45;;
1436;SDS011;712;51.026;13.792;2022-12-16T18:02:33;57.47;;;22.40;;
1436;SDS011;712;51.026;13.792;2022-12-16T18:05:17;59.28;;;22.95;;
1436;SDS011;712;51.026;13.792;2022-12-16T18:08:01;52.72;;;21.70;;
1436;SDS011;712;51.026;13.792;2022-12-16T18:10:45;57.92;;;21.90;;
1436;SDS011;712;51.026;13.792;2022-12-16T18:13:29;54.25;;;21.90;;
1436;SDS011;712;51.026;13.792;2022-12-16T18:16:13;52.03;;;21.58;;
1436;SDS011;712;51.026;13.792;2022-12-16T18:18:57;58.25;;;23.35;;
1436;SDS011;712;51.026;13.792;2022-12-16T18:21:41;59.60;;;22.45;;